createdAt,value
2018-06-01T00:01:44.843Z,12.67
2018-06-01T00:06:46.770Z,16.50
2018-06-01T00:11:48.488Z,14.73
2018-06-01T00:16:51.382Z,14.20
2018-06-01T00:21:53.810Z,16.93
2018-06-01T00:27:00.232Z,8.50
2018-06-01T00:32:02.727Z,6.30
2018-06-01T00:37:05.417Z,3.17
2018-06-01T00:42:09.232Z,3.27
2018-06-01T00:47:13.150Z,2.50
2018-06-01T00:52:17.939Z,2.37
2018-06-01T00:57:23.708Z,2.60
2018-06-01T01:02:26.760Z,2.50
2018-06-01T01:07:28.926Z,3.03
2018-06-01T01:12:30.413Z,2.50
2018-06-01T01:17:32.685Z,2.50
2018-06-01T01:22:34.321Z,3.03
2018-06-01T01:27:36.051Z,2.70
2018-06-01T01:32:37.659Z,3.50
2018-06-01T01:37:39.214Z,2.50
2018-06-01T01:42:40.746Z,3.23
2018-06-01T01:47:42.440Z,3.20
2018-06-01T01:52:44.201Z,3.50
2018-06-01T01:57:46.961Z,2.13
2018-06-01T02:02:48.721Z,2.73
2018-06-01T02:07:50.453Z,2.77
2018-06-01T02:12:52.990Z,2.43
2018-06-01T02:17:54.794Z,2.60
2018-06-01T02:22:56.649Z,1.90
2018-06-01T02:27:58.512Z,3.10
2018-06-01T02:33:00.877Z,3.70
2018-06-01T02:38:02.376Z,2.37
2018-06-01T02:43:03.919Z,2.43
2018-06-01T02:48:05.472Z,2.33
2018-06-01T02:53:07.320Z,2.30
2018-06-01T02:58:09.003Z,2.60
2018-06-01T03:03:10.754Z,2.30
2018-06-01T03:08:19.620Z,2.73
2018-06-01T03:13:28.437Z,2.37
2018-06-01T03:18:30.197Z,3.23
2018-06-01T03:23:32.796Z,3.30
2018-06-01T03:28:34.323Z,3.17
2018-06-01T03:33:36.540Z,3.70
2018-06-01T03:38:38.207Z,3.77
2018-06-01T03:43:40.467Z,3.53
2018-06-01T03:48:41.975Z,3.20
2018-06-01T03:53:44.528Z,3.50
2018-06-01T03:58:46.834Z,2.40
2018-06-01T04:03:49.190Z,3.50
2018-06-01T04:08:53.693Z,3.77
2018-06-01T04:13:55.359Z,3.93
2018-06-01T04:18:56.903Z,4.33
2018-06-01T04:23:59.590Z,3.70
2018-06-01T04:29:01.883Z,4.00
2018-06-01T04:34:03.699Z,4.90
2018-06-01T04:39:05.428Z,4.50
2018-06-01T04:44:07.806Z,4.30
2018-06-01T04:49:10.324Z,4.70
2018-06-01T04:54:11.995Z,5.50
2018-06-01T04:59:13.567Z,5.40
2018-06-01T05:04:15.423Z,4.30
2018-06-01T05:09:16.934Z,4.13
2018-06-01T05:14:18.511Z,5.40
2018-06-01T05:19:20.237Z,4.83
2018-06-01T05:24:22.131Z,4.10
2018-06-01T05:29:23.821Z,5.60
2018-06-01T05:34:25.543Z,5.63
2018-06-01T05:39:27.117Z,4.80
2018-06-01T05:44:28.726Z,6.10
2018-06-01T05:49:30.247Z,5.70
2018-06-01T05:54:32.015Z,5.20
2018-06-01T05:59:35.791Z,6.10
2018-06-01T06:04:37.622Z,5.03
2018-06-01T06:09:40.095Z,5.47
2018-06-01T06:14:42.394Z,5.03
2018-06-01T06:19:43.920Z,5.27
2018-06-01T06:24:45.608Z,5.50
2018-06-01T06:29:50.152Z,4.80
2018-06-01T06:34:55.625Z,6.10
2018-06-01T06:39:59.129Z,5.33
2018-06-01T06:45:03.521Z,5.20
2018-06-01T06:50:08.843Z,5.20
2018-06-01T06:55:13.990Z,5.80
2018-06-01T07:00:19.293Z,5.33
2018-06-01T07:05:24.520Z,5.47
2018-06-01T07:10:29.530Z,6.00
2018-06-01T07:15:35.883Z,7.50
2018-06-01T07:20:41.227Z,7.37
2018-06-01T07:25:48.711Z,5.80
2018-06-01T07:30:54.932Z,6.73
2018-06-01T07:35:59.947Z,6.87
2018-06-01T07:41:05.535Z,6.13
2018-06-01T07:46:14.748Z,5.33
2018-06-01T07:51:21.788Z,5.73
2018-06-01T07:56:28.269Z,5.60
2018-06-01T08:01:35.139Z,5.50
2018-06-01T08:06:41.955Z,6.00
2018-06-01T08:11:48.689Z,9.80
2018-06-01T08:16:51.093Z,5.70
2018-06-01T08:21:59.781Z,7.07
2018-06-01T08:27:01.452Z,6.47
2018-06-01T08:32:03.310Z,6.40
2018-06-01T08:37:05.560Z,6.07
2018-06-01T08:42:07.302Z,5.80
2018-06-01T08:47:08.893Z,5.90
2018-06-01T08:52:10.416Z,5.50
2018-06-01T08:57:11.988Z,5.30
2018-06-01T09:02:13.741Z,5.67
2018-06-01T09:07:16.024Z,5.40
2018-06-01T09:12:18.544Z,6.13
2018-06-01T09:17:20.414Z,5.70
2018-06-01T09:22:22.192Z,5.67
2018-06-01T09:27:23.759Z,5.20
2018-06-01T09:32:25.544Z,6.20
2018-06-01T09:37:27.215Z,5.67
2018-06-01T09:42:29.094Z,4.50
2018-06-01T09:47:30.674Z,4.83
2018-06-01T09:52:32.355Z,4.83
2018-06-01T09:57:34.191Z,4.90
2018-06-01T10:02:35.958Z,4.40
2018-06-01T10:07:37.729Z,5.07
2018-06-01T10:12:39.479Z,5.73
2018-06-01T10:17:41.930Z,5.03
2018-06-01T10:22:43.754Z,5.17
2018-06-01T10:27:45.541Z,6.00
2018-06-01T10:32:47.311Z,5.60
2018-06-01T10:37:48.851Z,4.70
2018-06-01T10:42:50.396Z,4.47
2018-06-01T10:47:52.237Z,4.53
2018-06-01T10:52:53.996Z,3.40
2018-06-01T10:57:55.769Z,3.60
2018-06-01T11:02:57.315Z,3.87
2018-06-01T11:07:59.800Z,3.93
2018-06-01T11:13:02.211Z,4.47
2018-06-01T11:18:03.777Z,4.20
2018-06-01T11:23:05.304Z,4.60
2018-06-01T11:28:07.165Z,4.20
2018-06-01T11:33:08.748Z,4.20
2018-06-01T11:38:10.295Z,4.50
2018-06-01T11:43:12.011Z,4.80
2018-06-01T11:48:13.898Z,4.87
2018-06-01T11:53:15.422Z,5.47
2018-06-01T11:58:17.158Z,5.97
2018-06-01T12:03:18.917Z,6.20
2018-06-01T12:08:20.684Z,6.80
2018-06-01T12:13:22.321Z,6.17
2018-06-01T12:18:24.607Z,6.70
2018-06-01T12:23:26.933Z,7.57
2018-06-01T12:28:28.523Z,6.67
2018-06-01T12:33:30.054Z,6.90
2018-06-01T12:38:32.306Z,6.63
2018-06-01T12:43:33.848Z,6.37
2018-06-01T12:48:35.384Z,6.60
2018-06-01T12:53:37.083Z,3.70
2018-06-01T12:58:38.618Z,4.60
2018-06-01T13:03:40.126Z,4.30
2018-06-01T13:08:41.703Z,3.93
2018-06-01T13:13:43.516Z,5.60
2018-06-01T13:18:45.136Z,4.70
2018-06-01T13:23:46.659Z,5.10
2018-06-01T13:28:48.305Z,4.60
2018-06-01T13:33:49.917Z,4.30
2018-06-01T13:48:29.677Z,4.20
2018-06-01T13:53:31.365Z,3.43
2018-06-01T13:58:33.679Z,3.40
2018-06-01T14:03:43.523Z,3.13
2018-06-01T14:08:45.119Z,3.47
2018-06-01T14:13:46.832Z,3.00
2018-06-01T14:18:49.139Z,6.77
2018-06-01T14:23:51.517Z,3.10
2018-06-01T14:28:58.244Z,3.50
2018-06-01T14:33:59.827Z,2.90
2018-06-01T14:39:02.427Z,3.37
2018-06-01T14:44:04.349Z,3.53
2018-06-01T14:49:06.664Z,3.87
2018-06-01T14:54:08.216Z,3.93
2018-06-01T14:59:09.786Z,3.67
2018-06-01T15:04:11.352Z,7.10
2018-06-01T15:09:13.853Z,3.13
2018-06-01T15:14:15.403Z,2.30
2018-06-01T15:19:17.676Z,2.83
2018-06-01T15:24:20.009Z,3.20
2018-06-01T15:29:21.583Z,3.13
2018-06-01T15:34:23.177Z,3.40
2018-06-01T15:39:24.799Z,2.73
2018-06-01T15:44:26.300Z,2.70
2018-06-01T15:49:27.870Z,2.60
2018-06-01T15:54:29.395Z,2.23
2018-06-01T15:59:31.175Z,2.90
2018-06-01T16:04:32.747Z,3.30
2018-06-01T16:09:34.288Z,3.47
2018-06-01T16:14:36.607Z,3.57
2018-06-01T16:19:38.231Z,3.00
2018-06-01T16:24:39.788Z,2.80
2018-06-01T16:29:41.377Z,3.17
2018-06-01T16:34:43.825Z,3.27
2018-06-01T16:39:45.497Z,3.17
2018-06-01T16:44:47.033Z,3.03
2018-06-01T16:49:48.641Z,3.30
2018-06-01T16:54:50.348Z,3.10
2018-06-01T16:59:52.912Z,3.00
2018-06-01T17:04:54.524Z,2.93
2018-06-01T17:09:56.255Z,3.43
2018-06-01T17:14:57.880Z,3.20
2018-06-01T17:19:59.432Z,2.87
2018-06-01T17:25:01.026Z,3.00
2018-06-01T17:30:02.563Z,3.13
2018-06-01T17:35:04.114Z,3.00
2018-06-01T17:40:06.618Z,3.30
2018-06-01T17:45:08.931Z,3.60
2018-06-01T17:50:10.519Z,3.37
2018-06-01T17:55:12.123Z,3.50
2018-06-01T18:00:14.388Z,3.47
2018-06-01T18:05:15.981Z,3.80
2018-06-01T18:10:18.327Z,4.07
2018-06-01T18:15:19.911Z,2.90
2018-06-01T18:20:21.423Z,3.33
2018-06-01T18:25:22.977Z,3.90
2018-06-01T18:30:25.268Z,3.17
2018-06-01T18:35:27.857Z,4.07
2018-06-01T18:40:30.855Z,3.43
2018-06-01T18:45:32.560Z,3.53
2018-06-01T18:50:34.305Z,2.90
2018-06-01T18:55:36.834Z,3.20
2018-06-01T19:00:38.878Z,3.30
2018-06-01T19:05:41.803Z,3.97
2018-06-01T19:10:43.623Z,5.97
2018-06-01T19:15:45.643Z,3.90
2018-06-01T19:20:47.439Z,24.03
2018-06-01T19:25:50.515Z,6.60
2018-06-01T19:30:52.753Z,5.70
2018-06-01T19:35:54.442Z,4.20
2018-06-01T19:40:56.842Z,3.77
2018-06-01T19:45:58.596Z,3.83
2018-06-01T19:51:01.693Z,2.80
2018-06-01T19:56:04.323Z,3.87
2018-06-01T20:01:06.078Z,3.13
2018-06-01T20:06:08.906Z,4.10
2018-06-01T20:11:10.558Z,3.10
2018-06-01T20:16:13.236Z,3.77
2018-06-01T20:21:17.355Z,3.40
2018-06-01T20:26:19.534Z,3.67
2018-06-01T20:31:21.894Z,3.83
2018-06-01T20:36:23.619Z,3.60
2018-06-01T20:41:25.297Z,3.43
2018-06-01T20:46:26.916Z,3.90
2018-06-01T20:51:29.529Z,3.90
2018-06-01T20:56:32.383Z,4.67
2018-06-01T21:01:33.943Z,3.77
2018-06-01T21:06:35.818Z,3.47
2018-06-01T21:11:37.529Z,3.43
2018-06-01T21:16:39.547Z,4.50
2018-06-01T21:21:41.344Z,3.80
2018-06-01T21:26:43.964Z,3.73
2018-06-01T21:31:45.591Z,3.73
2018-06-01T21:36:47.135Z,3.70
2018-06-01T21:41:49.441Z,4.13
2018-06-01T21:46:52.095Z,4.73
2018-06-01T21:51:54.268Z,5.47
2018-06-01T21:56:56.155Z,4.47
2018-06-01T22:01:57.851Z,5.10
2018-06-01T22:07:00.593Z,5.13
2018-06-01T22:12:09.985Z,5.20
2018-06-01T22:17:13.866Z,6.00
2018-06-01T22:22:16.095Z,4.97
2018-06-01T22:27:18.789Z,5.30
2018-06-01T22:32:20.559Z,6.20
2018-06-01T22:37:23.238Z,5.50
2018-06-01T22:42:25.168Z,9.00
2018-06-01T22:47:27.395Z,6.23
2018-06-01T22:52:30.201Z,5.70
2018-06-01T22:57:31.823Z,5.70
2018-06-01T23:02:34.039Z,5.90
2018-06-01T23:07:35.715Z,5.10
2018-06-01T23:12:38.098Z,6.37
2018-06-01T23:17:44.205Z,5.13
2018-06-01T23:22:47.146Z,4.40
2018-06-01T23:27:50.493Z,4.93
2018-06-01T23:32:53.309Z,6.10
2018-06-01T23:37:55.266Z,6.77
2018-06-01T23:42:57.032Z,6.80
2018-06-01T23:47:59.415Z,6.97
2018-06-01T23:53:01.599Z,6.63
2018-06-01T23:58:03.272Z,6.00
